Airfield :
LOGIN :

Register | Disclaimer

   EN    FR    IT 

 










Legend :    VFR   Marginal VFR   IFR   Intensive IFR   Very Intensive IFR
Visi :
Ceiling :
>= 8 km
>= 3000ft
5 to 8 km
1000 to 3000 ft
1500m to 5 km
500 to 1000 ft
800 to 1500m
200 to 500 ft
< 800m
< 200 ft
Symbols :   Thunderstorms  Fog  Heavy snow  Heavy precipitations  Wind > 20 kt
SIGMETs :     Misc.  Thunderstorms  Icing  Turbulence  Mountain Waves  Volcanic Ashes






- Airport Elevation : 297 ft
- IATA code : UIP


LFRQ - Quimper Pluguffan

CURRENT METAR :
  • 040900Z AUTO 08011KT 9999 OVC010 03/01 Q1011 NOSIG

EXPIRED METARs :
  • 040830Z AUTO 08009KT 9000 OVC009 03/02 Q1011 NOSIG
  • 040800Z AUTO 07006KT 8000 OVC009 03/02 Q1011 NOSIG
  • 040730Z AUTO 06004KT 8000 OVC009 02/01 Q1011 NOSIG
  • 040700Z AUTO VRB01KT 9000 OVC011 02/01 Q1011 TEMPO 4000 BR BKN009
  • 040630Z AUTO 03002KT 9999 OVC010 02/01 Q1011 TEMPO 4000 BR

TAF AMD TAF LFRQ
Valid from the 04 at 06:00 until the 05 at 06:00 UTC


040639Z 0406/0506 07008KT 8000 BKN020
TEMPO 0406/0420 BKN009
PROB30
TEMPO 0406/0408 4000 BR
TEMPO 0420/0506 3000 BR BKN005
PROB40
TEMPO 0500/0506 0500 FG VV///



MET'MAP, your aeronautical weather chart ! - Copyright ORBIFLY December 2007 - Disclaimer

ORBIFLY MET'MAP TEAM :

Programming & Development : Alexandra Zaïnal
Original concept : Baudouin d'Aumeries
Technical & hardware support : Manuel Goepfert
Assistance : Marc-Olivier Méhu




SOURCES & CREDITS :

   NOAA